Time;durP1;ratioP1;P1;durP2;ratioP2;P2;SDS_P1;SDS_P2;PMS_P1;PMS_P2;Temp;Humidity;BMP_temperature;BMP_pressure;BME280_temperature;BME280_humidity;BME280_pressure;Samples;Min_cycle;Max_cycle;Signal;HPM_P1;HPM_P2
2022/04/20 00:00:59;;;;;;;0.20;0.20;;;;;;;20.00;39.63;101157.84;5138056;27;20043;-30
2022/04/20 00:03:25;;;;;;;0.20;0.20;;;;;;;20.00;39.56;101161.44;5131466;27;20130;-29
2022/04/20 00:05:51;;;;;;;0.20;0.20;;;;;;;20.01;39.90;101165.03;5114756;27;20042;-30
2022/04/20 00:08:17;;;;;;;0.20;0.20;;;;;;;19.99;39.79;101157.03;5140101;27;20043;-30
2022/04/20 00:10:42;;;;;;;0.20;0.20;;;;;;;20.01;39.59;101165.84;5130606;27;20126;-30
2022/04/20 00:13:09;;;;;;;0.20;0.20;;;;;;;20.00;39.87;101155.91;5122754;27;20054;-29
2022/04/20 00:15:35;;;;;;;0.10;0.10;;;;;;;20.01;39.72;101162.25;5137575;27;20115;-29
2022/04/20 00:18:01;;;;;;;0.20;0.20;;;;;;;20.00;39.48;101152.31;5132039;27;20047;-30
2022/04/20 00:20:26;;;;;;;0.20;0.20;;;;;;;20.00;39.92;101150.38;5133890;27;20047;-29
2022/04/20 00:22:52;;;;;;;0.20;0.20;;;;;;;20.01;39.88;101152.03;5134186;27;20483;-31
2022/04/20 00:25:18;;;;;;;0.20;0.20;;;;;;;20.02;39.89;101158.38;5133648;27;20035;-30
2022/04/20 00:27:43;;;;;;;0.20;0.20;;;;;;;20.00;39.83;101149.56;5138106;27;20500;-30
2022/04/20 00:30:10;;;;;;;0.20;0.20;;;;;;;20.01;39.87;101159.50;5112808;28;20488;-30
2022/04/20 00:32:36;;;;;;;0.20;0.20;;;;;;;20.00;39.78;101150.38;5114947;27;20122;-31
2022/04/20 00:35:02;;;;;;;0.20;0.20;;;;;;;20.00;39.99;101152.31;5116776;27;20130;-31
2022/04/20 00:37:28;;;;;;;0.20;0.20;;;;;;;20.00;39.51;101153.16;5135830;27;20047;-31
2022/04/20 00:39:54;;;;;;;0.20;0.20;;;;;;;20.00;39.74;101155.91;5135637;27;20468;-29
2022/04/20 00:42:22;;;;;;;0.20;0.20;;;;;;;20.02;39.57;101152.84;5139268;27;20103;-29
2022/04/20 00:44:48;;;;;;;;;;;;;;;20.01;39.53;101157.56;5132380;27;20085;-30
2022/04/20 00:47:15;;;;;;;0.20;0.20;;;;;;;20.00;39.81;101163.38;5116685;27;19927;-30
2022/04/20 00:49:41;;;;;;;0.20;0.20;;;;;;;20.00;39.90;101157.84;5132950;27;20097;-31
2022/04/20 00:52:07;;;;;;;0.20;0.20;;;;;;;20.00;39.89;101155.91;5132192;27;20143;-32
2022/04/20 00:54:32;;;;;;;0.20;0.20;;;;;;;20.01;39.75;101159.50;5134561;27;20042;-29
2022/04/20 00:56:58;;;;;;;0.20;0.20;;;;;;;20.00;39.73;101155.91;5141285;27;20065;-30
2022/04/20 00:59:26;;;;;;;0.20;0.20;;;;;;;20.01;39.81;101159.50;5134455;27;20043;-29
2022/04/20 01:01:52;;;;;;;;;;;;;;;20.01;39.66;101151.19;5099102;27;20130;-30
2022/04/20 01:04:18;;;;;;;0.20;0.20;;;;;;;20.00;39.64;101152.31;5134296;27;19965;-30
2022/04/20 01:06:45;;;;;;;0.20;0.20;;;;;;;20.00;39.82;101158.69;5137763;27;21274;-31
2022/04/20 01:09:11;;;;;;;0.20;0.20;;;;;;;20.01;39.81;101159.50;5136931;27;20078;-31
2022/04/20 01:11:37;;;;;;;0.20;0.20;;;;;;;20.00;39.67;101155.09;5136354;27;20046;-30
2022/04/20 01:14:02;;;;;;;0.20;0.20;;;;;;;20.00;39.80;101158.69;5133567;27;20051;-31
2022/04/20 01:16:28;;;;;;;0.20;0.20;;;;;;;20.00;39.80;101157.84;5119272;27;20047;-31
2022/04/20 01:18:53;;;;;;;0.20;0.20;;;;;;;20.00;39.71;101157.84;5133318;27;20073;-31
2022/04/20 01:21:19;;;;;;;0.20;0.20;;;;;;;19.99;39.93;101154.25;5133844;27;20057;-30
2022/04/20 01:23:45;;;;;;;0.20;0.20;;;;;;;20.00;39.63;101155.91;5135592;27;20129;-29
2022/04/20 01:26:11;;;;;;;0.20;0.20;;;;;;;20.01;39.76;101167.78;5136058;27;20076;-30
2022/04/20 01:28:42;;;;;;;0.20;0.20;;;;;;;20.00;39.82;101155.09;5124354;27;20047;-28
2022/04/20 01:31:07;;;;;;;0.17;0.17;;;;;;;20.00;39.91;101161.44;5115640;27;20135;-30
2022/04/20 01:33:33;;;;;;;0.10;0.10;;;;;;;20.01;39.96;101157.56;5136689;27;20468;-30
2022/04/20 01:35:59;;;;;;;0.20;0.20;;;;;;;20.01;39.90;101153.97;5131837;27;20079;-33
2022/04/20 01:38:25;;;;;;;0.20;0.20;;;;;;;20.00;39.74;101153.16;5113782;27;20051;-30
2022/04/20 01:40:51;;;;;;;0.20;0.20;;;;;;;20.00;39.77;101149.56;5136424;27;20135;-30
2022/04/20 01:43:16;;;;;;;0.20;0.20;;;;;;;20.00;39.76;101150.38;5118423;28;20043;-30
2022/04/20 01:45:42;;;;;;;0.20;0.20;;;;;;;20.00;39.72;101153.16;5128728;27;20047;-29
2022/04/20 01:48:08;;;;;;;0.20;0.20;;;;;;;20.00;39.96;101155.09;5131809;27;20173;-27
2022/04/20 01:50:33;;;;;;;0.10;0.10;;;;;;;20.01;40.03;101153.97;5133398;27;20046;-30
2022/04/20 01:52:59;;;;;;;0.10;0.10;;;;;;;20.01;39.80;101159.50;5132207;27;20039;-31
2022/04/20 01:55:25;;;;;;;0.20;0.20;;;;;;;20.00;39.58;101155.09;5141742;27;20465;-30
2022/04/20 01:57:52;;;;;;;0.20;0.20;;;;;;;20.01;39.65;101159.50;5132833;27;20043;-31
2022/04/20 02:00:18;;;;;;;0.20;0.20;;;;;;;20.01;39.65;101165.03;5136290;27;20126;-30
2022/04/20 02:02:43;;;;;;;0.20;0.20;;;;;;;20.01;39.57;101165.03;5134335;27;20047;-32
2022/04/20 02:05:11;;;;;;;0.20;0.20;;;;;;;19.99;39.43;101164.47;5131833;27;20039;-31
2022/04/20 02:07:37;;;;;;;0.20;0.20;;;;;;;20.01;39.75;101160.31;5115614;27;20467;-31
2022/04/20 02:10:04;;;;;;;0.20;0.20;;;;;;;20.01;39.61;101165.03;5115098;28;20043;-30
2022/04/20 02:12:30;;;;;;;0.20;0.20;;;;;;;20.00;39.64;101160.63;5133824;27;20484;-30
2022/04/20 02:14:55;;;;;;;0.20;0.20;;;;;;;20.00;39.63;101160.63;5136332;27;20054;-31
2022/04/20 02:17:21;;;;;;;0.20;0.20;;;;;;;20.01;39.88;101163.09;5134908;27;20130;-30
2022/04/20 02:19:48;;;;;;;0.20;0.20;;;;;;;20.00;39.64;101169.72;5112427;28;20122;-30
2022/04/20 02:22:14;;;;;;;0.20;0.20;;;;;;;20.00;40.01;101160.63;5114551;27;20071;-30
2022/04/20 02:24:39;;;;;;;0.10;0.10;;;;;;;20.00;39.86;101158.69;5106920;28;20362;-28
2022/04/20 02:27:05;;;;;;;0.20;0.20;;;;;;;20.00;40.01;101161.44;5137826;27;20038;-30
2022/04/20 02:29:31;;;;;;;0.20;0.20;;;;;;;20.00;39.73;101164.19;5134585;27;20039;-31
2022/04/20 02:31:56;;;;;;;0.20;0.20;;;;;;;20.01;39.89;101165.03;5132498;27;20039;-29
2022/04/20 02:34:22;;;;;;;0.20;0.20;;;;;;;20.02;39.75;101163.91;5131928;27;20498;-30
2022/04/20 02:36:48;;;;;;;0.20;0.20;;;;;;;20.00;39.64;101169.72;5132332;27;20042;-30
2022/04/20 02:39:14;;;;;;;0.20;0.20;;;;;;;20.01;39.83;101167.78;5135019;27;20039;-31
2022/04/20 02:41:40;;;;;;;0.20;0.20;;;;;;;20.00;39.61;101161.44;5128550;27;20051;-30
2022/04/20 02:44:07;;;;;;;0.20;0.20;;;;;;;20.00;39.80;101166.97;5136689;27;20481;-30
2022/04/20 02:46:33;;;;;;;0.20;0.20;;;;;;;20.01;40.16;101165.03;5116180;27;20788;-31
2022/04/20 02:48:58;;;;;;;0.20;0.20;;;;;;;20.00;39.72;101166.97;5109771;27;20045;-31
2022/04/20 02:51:25;;;;;;;0.20;0.20;;;;;;;20.00;39.88;101169.72;5130887;27;20049;-29
2022/04/20 02:53:50;;;;;;;0.20;0.20;;;;;;;20.01;39.63;101176.09;5118397;28;20039;-30
2022/04/20 02:56:16;;;;;;;0.10;0.10;;;;;;;20.02;39.54;101174.97;5135210;27;20135;-30
2022/04/20 02:58:42;;;;;;;0.20;0.20;;;;;;;20.00;39.75;101178.03;5136461;27;20049;-30
2022/04/20 03:01:07;;;;;;;0.20;0.20;;;;;;;20.00;39.80;101178.03;5138750;27;20050;-30
2022/04/20 03:03:34;;;;;;;0.20;0.20;;;;;;;20.01;39.81;101184.38;5136617;27;20047;-31
2022/04/20 03:05:59;;;;;;;0.20;0.20;;;;;;;20.01;39.78;101185.19;5115943;28;20078;-31
2022/04/20 03:08:25;;;;;;;0.10;0.10;;;;;;;19.99;39.68;101181.91;5131171;27;20051;-30
2022/04/20 03:10:51;;;;;;;0.20;0.20;;;;;;;19.99;39.90;101179.16;5134103;27;20050;-31
2022/04/20 03:13:18;;;;;;;0.20;0.20;;;;;;;20.00;39.70;101175.25;5099595;27;20086;-31
2022/04/20 03:15:45;;;;;;;0.20;0.20;;;;;;;19.99;40.04;101184.66;5117608;27;20137;-30
2022/04/20 03:18:10;;;;;;;0.20;0.20;;;;;;;20.00;39.76;101179.97;5136274;27;20129;-31
2022/04/20 03:20:36;;;;;;;0.20;0.20;;;;;;;20.01;39.65;101184.38;5133036;27;20058;-30
2022/04/20 03:23:02;;;;;;;0.20;0.20;;;;;;;19.99;39.82;101184.66;5116898;27;20040;-30
2022/04/20 03:25:28;;;;;;;0.20;0.20;;;;;;;20.00;39.90;101183.56;5133711;27;20130;-30
2022/04/20 03:27:54;;;;;;;0.20;0.20;;;;;;;20.01;39.72;101187.97;5138264;27;20046;-32
2022/04/20 03:30:19;;;;;;;0.20;0.20;;;;;;;20.00;40.01;101183.56;5133491;27;20489;-29
2022/04/20 03:32:45;;;;;;;0.20;0.20;;;;;;;19.99;39.75;101184.66;5117747;27;20381;-30
2022/04/20 03:35:11;;;;;;;0.20;0.20;;;;;;;20.00;39.76;101179.97;5120939;27;20650;-30
2022/04/20 03:37:37;;;;;;;0.20;0.20;;;;;;;19.99;39.77;101181.06;5118756;27;20060;-30
2022/04/20 03:40:05;;;;;;;0.20;0.20;;;;;;;19.99;39.71;101184.66;5137495;27;20036;-31
2022/04/20 03:42:30;;;;;;;0.13;0.13;;;;;;;20.00;40.02;101182.72;5139785;27;20469;-30
2022/04/20 03:44:56;;;;;;;0.20;0.20;;;;;;;20.00;39.92;101188.25;5139282;27;20138;-32
2022/04/20 03:47:21;;;;;;;0.20;0.20;;;;;;;20.01;39.62;101182.44;5134746;27;20465;-30
2022/04/20 03:49:47;;;;;;;0.20;0.20;;;;;;;20.00;39.77;101182.72;5133499;27;20042;-33
2022/04/20 03:52:13;;;;;;;0.20;0.20;;;;;;;19.99;39.62;101190.19;5136597;27;20043;-31
2022/04/20 03:54:39;;;;;;;0.20;0.20;;;;;;;20.00;39.81;101186.31;5132836;27;20043;-30
2022/04/20 03:57:05;;;;;;;0.20;0.20;;;;;;;19.99;40.01;101184.66;5136154;27;20039;-29
2022/04/20 03:59:33;;;;;;;0.20;0.20;;;;;;;20.01;39.87;101184.38;5122040;27;20142;-30
2022/04/20 04:01:59;;;;;;;0.20;0.20;;;;;;;20.00;39.65;101189.09;5137723;27;20601;-30
2022/04/20 04:04:26;;;;;;;0.15;0.15;;;;;;;20.00;39.93;101197.38;5141549;27;20568;-32
2022/04/20 04:06:51;;;;;;;0.20;0.20;;;;;;;20.00;39.86;101194.63;5127519;27;20541;-32
2022/04/20 04:09:17;;;;;;;0.20;0.20;;;;;;;20.00;39.77;101196.56;5133764;27;20039;-31
2022/04/20 04:11:43;;;;;;;0.10;0.10;;;;;;;20.00;39.96;101191.84;5138304;27;20047;-30
2022/04/20 04:14:09;;;;;;;0.17;0.17;;;;;;;20.00;40.04;101202.09;5116887;27;20474;-30
2022/04/20 04:16:36;;;;;;;0.20;0.20;;;;;;;20.01;39.66;101215.63;5117587;27;20453;-32
2022/04/20 04:19:03;;;;;;;0.20;0.20;;;;;;;20.00;39.81;101204.84;5133947;27;20043;-29
2022/04/20 04:21:29;;;;;;;0.20;0.20;;;;;;;20.00;39.99;101210.38;5136498;27;20073;-30
2022/04/20 04:23:54;;;;;;;0.20;0.20;;;;;;;20.00;39.66;101208.44;5133415;27;20043;-30
2022/04/20 04:26:20;;;;;;;0.20;0.20;;;;;;;20.00;39.93;101205.66;5132607;27;20039;-29
2022/04/20 04:28:46;;;;;;;0.20;0.20;;;;;;;20.00;39.96;101211.19;5141655;27;20039;-28
2022/04/20 04:31:11;;;;;;;0.20;0.20;;;;;;;20.00;39.86;101213.97;5134996;27;20039;-31
2022/04/20 04:33:37;;;;;;;0.20;0.20;;;;;;;20.00;40.03;101211.19;5139490;27;20047;-30
2022/04/20 04:36:03;;;;;;;0.20;0.20;;;;;;;20.00;39.84;101208.44;5136148;27;20366;-29
2022/04/20 04:38:28;;;;;;;0.20;0.20;;;;;;;20.00;39.93;101210.38;5114586;27;20095;-30
2022/04/20 04:40:54;;;;;;;0.20;0.20;;;;;;;20.00;39.82;101213.13;5131566;27;20050;-30
2022/04/20 04:43:22;;;;;;;0.20;0.20;;;;;;;20.01;39.95;101212.03;5135128;27;20046;-30
2022/04/20 04:48:37;;;;;;;0.10;0.10;;;;;;;20.00;39.90;101211.19;5113026;27;20039;-31
2022/04/20 04:51:04;;;;;;;0.20;0.20;;;;;;;19.99;39.91;101212.31;5136337;27;20119;-29
2022/04/20 04:53:29;;;;;;;0.20;0.20;;;;;;;20.00;39.76;101215.91;5134460;27;20082;-29
2022/04/20 04:56:04;;;;;;;0.10;0.10;;;;;;;20.01;39.64;101228.63;5133256;27;20050;-30
2022/04/20 04:58:30;;;;;;;0.20;0.20;;;;;;;20.00;39.78;101227.78;5134140;27;20043;-30
2022/04/20 05:00:55;;;;;;;0.20;0.20;;;;;;;19.99;39.65;101220.59;5132606;27;20035;-30
2022/04/20 05:03:21;;;;;;;0.20;0.20;;;;;;;20.00;39.57;101222.25;5141912;27;20046;-30
2022/04/20 05:05:47;;;;;;;0.20;0.20;;;;;;;20.00;39.91;101221.44;5139458;27;21596;-30
2022/04/20 05:08:13;;;;;;;0.20;0.20;;;;;;;19.99;39.89;101217.84;5115490;28;20035;-29
2022/04/20 05:10:39;;;;;;;0.20;0.20;;;;;;;20.01;39.96;101225.84;5115535;27;20039;-30
2022/04/20 05:13:05;;;;;;;0.20;0.20;;;;;;;20.01;39.78;101225.84;5140880;27;20392;-30
2022/04/20 05:15:31;;;;;;;0.20;0.20;;;;;;;20.00;39.83;101229.72;5137229;27;20093;-30
2022/04/20 05:17:57;;;;;;;0.20;0.20;;;;;;;20.01;39.73;101231.38;5136262;27;20047;-31
2022/04/20 05:20:22;;;;;;;0.10;0.10;;;;;;;20.01;39.63;101228.63;5134186;27;20050;-33
2022/04/20 05:22:48;;;;;;;0.20;0.20;;;;;;;19.99;39.79;101226.13;5139567;27;20488;-30
2022/04/20 05:25:14;;;;;;;0.10;0.10;;;;;;;20.01;39.81;101231.38;5134002;27;20476;-31
2022/04/20 05:27:40;;;;;;;0.20;0.20;;;;;;;20.00;40.07;101230.56;5116353;27;20126;-30
2022/04/20 05:30:07;;;;;;;0.20;0.20;;;;;;;20.01;39.78;101231.38;5111034;28;20469;-30
2022/04/20 05:32:33;;;;;;;0.20;0.20;;;;;;;19.99;39.72;101228.91;5098406;27;20072;-30
2022/04/20 05:35:01;;;;;;;0.20;0.20;;;;;;;19.99;39.93;101234.44;5130610;27;20058;-29
2022/04/20 05:42:59;;;;;;;0.20;0.20;;;;;;;20.00;39.95;101243.56;5120493;27;20485;-31
2022/04/20 05:45:24;;;;;;;0.20;0.20;;;;;;;20.00;39.70;101240.78;5134466;27;20111;-30
2022/04/20 05:47:50;;;;;;;0.20;0.20;;;;;;;20.00;39.61;101238.84;5114003;27;20047;-29
2022/04/20 05:50:16;;;;;;;0.20;0.20;;;;;;;19.99;39.88;101231.66;5130402;27;20054;-32
2022/04/20 05:52:41;;;;;;;0.20;0.20;;;;;;;20.00;39.72;101232.50;5131899;27;20039;-30
2022/04/20 05:55:07;;;;;;;0.20;0.20;;;;;;;20.00;39.80;101229.72;5136838;27;20430;-31
2022/04/20 05:57:33;;;;;;;0.20;0.20;;;;;;;20.00;39.64;101227.78;5134450;27;20074;-29
2022/04/20 05:59:59;;;;;;;0.10;0.10;;;;;;;20.00;39.89;101230.56;5130334;27;20083;-30
2022/04/20 06:02:25;;;;;;;0.20;0.20;;;;;;;20.00;39.71;101232.50;5133620;27;20069;-30
2022/04/20 06:04:51;;;;;;;0.20;0.20;;;;;;;19.98;39.68;101235.50;5138146;27;20400;-31
2022/04/20 06:07:17;;;;;;;0.20;0.20;;;;;;;19.99;39.93;101230.81;5132380;27;20039;-31
2022/04/20 06:09:43;;;;;;;0.10;0.10;;;;;;;19.99;39.77;101231.66;5131855;27;20143;-30
2022/04/20 06:12:14;;;;;;;0.20;0.20;;;;;;;20.00;39.59;101232.50;5136746;27;20054;-30
2022/04/20 06:14:40;;;;;;;0.20;0.20;;;;;;;20.00;40.04;101241.59;5135955;27;20530;-29
2022/04/20 06:17:06;;;;;;;0.20;0.20;;;;;;;19.99;40.13;101242.72;5137748;27;20046;-29
2022/04/20 06:19:32;;;;;;;0.20;0.20;;;;;;;20.00;39.63;101243.56;5129296;27;20133;-30
2022/04/20 06:21:57;;;;;;;0.20;0.20;;;;;;;19.99;39.87;101242.72;5134547;27;20043;-29
2022/04/20 06:24:23;;;;;;;0.10;0.10;;;;;;;20.01;39.73;101245.19;5132292;27;20130;-30
2022/04/20 06:26:49;;;;;;;0.20;0.20;;;;;;;19.99;40.00;101251.00;5130861;27;20042;-30
2022/04/20 06:29:14;;;;;;;0.20;0.20;;;;;;;20.00;39.75;101249.91;5132412;27;20173;-29
2022/04/20 06:31:42;;;;;;;0.20;0.20;;;;;;;19.99;39.80;101248.25;5135925;27;20043;-29
2022/04/20 06:34:08;;;;;;;0.20;0.20;;;;;;;19.98;39.77;101243.81;5131571;27;20047;-29
2022/04/20 06:36:33;;;;;;;0.20;0.20;;;;;;;19.99;40.01;101250.16;5136455;27;20054;-29
2022/04/20 06:39:00;;;;;;;0.20;0.20;;;;;;;20.00;39.63;101254.59;5136395;27;20138;-30
2022/04/20 06:41:26;;;;;;;0.20;0.20;;;;;;;19.98;39.88;101249.34;5134305;27;20095;-29
2022/04/20 06:43:52;;;;;;;0.20;0.20;;;;;;;20.00;39.74;101251.84;5129368;27;20504;-30
2022/04/20 06:46:17;;;;;;;0.20;0.20;;;;;;;20.00;39.62;101254.59;5131973;27;20046;-29
2022/04/20 06:48:43;;;;;;;0.20;0.20;;;;;;;20.00;39.96;101251.84;5129554;27;20035;-31
2022/04/20 06:51:09;;;;;;;0.20;0.20;;;;;;;19.99;40.02;101247.41;5134868;27;20046;-31
2022/04/20 06:58:31;;;;;;;0.20;0.20;;;;;;;19.99;39.79;101241.88;5116597;27;20039;-30
2022/04/20 06:59:05;;;;;;;0.20;0.20;;;;;;;19.99;39.96;101245.50;5115263;27;20079;-30
2022/04/20 07:01:31;;;;;;;0.20;0.20;;;;;;;20.00;39.62;101241.59;5136808;27;20481;-29
2022/04/20 07:03:58;;;;;;;0.20;0.20;;;;;;;20.00;39.89;101243.56;5138298;27;20093;-30
2022/04/20 07:06:24;;;;;;;0.13;0.13;;;;;;;19.99;39.83;101242.72;5135435;27;20464;-30
2022/04/20 07:08:49;;;;;;;0.20;0.20;;;;;;;19.99;39.58;101247.41;5137854;27;20039;-30
2022/04/20 07:11:15;;;;;;;0.20;0.20;;;;;;;20.00;39.73;101246.31;5138825;27;20507;-31
2022/04/20 07:13:41;;;;;;;0.10;0.10;;;;;;;20.00;39.72;101247.13;5138098;27;20122;-30
2022/04/20 07:16:06;;;;;;;0.20;0.20;;;;;;;20.00;39.65;101249.06;5121298;27;20054;-32
2022/04/20 07:18:32;;;;;;;0.20;0.20;;;;;;;19.99;39.89;101248.25;5140802;27;20059;-29
2022/04/20 07:20:59;;;;;;;0.20;0.20;;;;;;;20.00;39.75;101244.38;5133665;27;20537;-31
2022/04/20 07:23:25;;;;;;;0.20;0.20;;;;;;;19.99;39.53;101245.50;5131338;27;20473;-30
2022/04/20 07:25:50;;;;;;;0.20;0.20;;;;;;;19.99;39.66;101241.88;5135783;27;20050;-30
2022/04/20 07:28:17;;;;;;;0.10;0.10;;;;;;;20.01;39.87;101236.91;5140581;27;20044;-30
2022/04/20 07:30:42;;;;;;;0.10;0.10;;;;;;;20.00;39.62;101249.06;5117171;27;20046;-29
2022/04/20 07:33:08;;;;;;;0.20;0.20;;;;;;;19.99;39.79;101242.72;5136029;27;20039;-31
2022/04/20 07:35:34;;;;;;;0.10;0.10;;;;;;;19.99;39.54;101244.63;5118386;28;20382;-30
2022/04/20 07:37:59;;;;;;;0.10;0.10;;;;;;;20.00;39.77;101254.59;5133645;27;20079;-30
2022/04/20 07:40:25;;;;;;;0.10;0.10;;;;;;;20.00;39.50;101258.19;5134450;27;20130;-29
2022/04/20 07:42:53;;;;;;;0.20;0.20;;;;;;;19.99;39.88;101256.53;5136445;27;20045;-29
2022/04/20 07:45:20;;;;;;;0.10;0.10;;;;;;;20.00;39.82;101257.38;5131436;27;20094;-30
2022/04/20 07:47:45;;;;;;;0.20;0.20;;;;;;;19.98;39.64;101260.41;5136349;27;20082;-30
2022/04/20 07:50:18;;;;;;;0.20;0.20;;;;;;;19.98;39.75;101260.41;5131692;27;20051;-30
2022/04/20 07:52:46;;;;;;;0.20;0.20;;;;;;;19.99;39.46;101261.22;5136721;27;20073;-30
2022/04/20 07:55:14;;;;;;;0.10;0.10;;;;;;;20.00;39.49;101260.13;5137647;27;20039;-30
2022/04/20 07:57:42;;;;;;;0.20;0.20;;;;;;;19.98;39.44;101254.88;5131428;27;20084;-30
2022/04/20 08:00:10;;;;;;;0.20;0.20;;;;;;;19.99;39.57;101255.69;5133866;27;20131;-31
2022/04/20 08:02:36;;;;;;;0.10;0.10;;;;;;;19.99;39.70;101262.06;5120754;27;20105;-30
2022/04/20 08:05:02;;;;;;;0.20;0.20;;;;;;;20.00;39.80;101262.91;5137947;27;20483;-30
2022/04/20 08:07:28;;;;;;;0.20;0.20;;;;;;;19.99;39.73;101267.59;5134557;27;20086;-30
2022/04/20 08:09:54;;;;;;;0.20;0.20;;;;;;;19.98;39.77;101263.16;5134626;27;20043;-30
2022/04/20 08:12:19;;;;;;;0.20;0.20;;;;;;;20.00;39.53;101265.66;5114660;27;20085;-30
2022/04/20 08:14:45;;;;;;;0.17;0.17;;;;;;;19.98;39.63;101274.22;5137092;27;20043;-30
2022/04/20 08:17:11;;;;;;;0.20;0.20;;;;;;;19.99;39.81;101270.38;5117274;27;20040;-30
2022/04/20 08:19:37;;;;;;;0.20;0.20;;;;;;;19.99;39.56;101277.81;5133209;27;20039;-29
2022/04/20 08:22:04;;;;;;;0.20;0.20;;;;;;;19.98;39.62;101265.91;5115707;27;20484;-30
2022/04/20 08:24:30;;;;;;;0.20;0.20;;;;;;;19.99;39.83;101267.59;5116935;27;20105;-29
2022/04/20 08:26:55;;;;;;;0.20;0.20;;;;;;;19.98;39.80;101267.88;5128232;27;20469;-30
2022/04/20 08:29:21;;;;;;;0.20;0.20;;;;;;;20.00;39.47;101273.97;5114041;28;20090;-31
2022/04/20 08:31:46;;;;;;;0.20;0.20;;;;;;;19.98;39.71;101268.69;5141671;27;20051;-29
2022/04/20 08:34:12;;;;;;;0.20;0.20;;;;;;;19.98;39.92;101276.16;5140101;27;20470;-30
2022/04/20 08:36:38;;;;;;;0.20;0.20;;;;;;;19.99;39.89;101278.66;5138058;27;20425;-30
2022/04/20 08:39:03;;;;;;;0.20;0.20;;;;;;;19.99;39.57;101270.38;5136538;27;20041;-30
2022/04/20 08:41:29;;;;;;;0.20;0.20;;;;;;;19.98;39.60;101276.97;5135349;27;20051;-30
2022/04/20 08:43:56;;;;;;;0.20;0.20;;;;;;;20.00;39.68;101273.97;5133838;27;20397;-29
2022/04/20 08:46:23;;;;;;;0.20;0.20;;;;;;;19.98;39.76;101270.63;5137188;27;20466;-31
2022/04/20 08:48:53;;;;;;;0.20;0.20;;;;;;;19.98;39.63;101257.63;5113301;27;20051;-30
2022/04/20 08:51:19;;;;;;;0.20;0.20;;;;;;;19.99;39.56;101261.22;5116662;27;20064;-30
2022/04/20 08:53:44;;;;;;;0.20;0.20;;;;;;;19.99;39.57;101272.28;5137339;27;20044;-29
2022/04/20 08:58:56;;;;;;;0.10;0.10;;;;;;;19.98;39.69;101259.56;5117595;27;20849;-29
2022/04/20 09:01:27;;;;;;;0.10;0.10;;;;;;;19.98;39.40;101254.03;5113247;28;20047;-30
2022/04/20 09:03:54;;;;;;;0.20;0.20;;;;;;;19.98;39.52;101254.03;5113516;27;20489;-30
2022/04/20 09:06:20;;;;;;;0.20;0.20;;;;;;;19.98;39.81;101248.50;5136735;27;20089;-31
2022/04/20 09:08:46;;;;;;;0.20;0.20;;;;;;;19.98;39.66;101252.09;5134660;27;20482;-30
2022/04/20 09:11:11;;;;;;;0.20;0.20;;;;;;;19.99;39.52;101252.94;5137687;27;20381;-30
2022/04/20 09:13:41;;;;;;;0.10;0.10;;;;;;;19.98;39.42;101254.88;5115999;27;20131;-31
2022/04/20 09:16:08;;;;;;;0.20;0.20;;;;;;;19.98;39.73;101254.88;5133667;27;20073;-29
2022/04/20 09:18:35;;;;;;;0.20;0.20;;;;;;;19.98;39.58;101246.56;5132964;27;20455;-30
2022/04/20 09:21:10;;;;;;;0.20;0.20;;;;;;;19.98;39.65;101251.28;5115514;27;20092;-30
2022/04/20 09:23:36;;;;;;;0.20;0.20;;;;;;;19.98;39.51;101251.28;5119989;27;20083;-29
2022/04/20 09:26:17;;;;;;;0.20;0.20;;;;;;;19.98;39.77;101256.81;5115910;27;20078;-30
2022/04/20 09:29:04;;;;;;;0.17;0.17;;;;;;;19.98;39.51;101245.75;5132373;27;20055;-30
2022/04/20 09:31:47;;;;;;;0.20;0.20;;;;;;;19.97;39.42;101247.69;5118920;27;20075;-31
2022/04/20 09:34:34;;;;;;;0.20;0.20;;;;;;;19.98;39.57;101242.97;5140424;27;20050;-30
2022/04/20 09:37:12;;;;;;;0.20;0.20;;;;;;;19.96;39.53;101229.44;5135937;27;20058;-30
2022/04/20 09:39:38;;;;;;;0.20;0.20;;;;;;;19.98;39.92;101234.69;5100627;27;20071;-30
2022/04/20 09:42:06;;;;;;;0.10;0.10;;;;;;;19.97;39.42;101224.75;5120684;27;20393;-30
2022/04/20 09:44:32;;;;;;;0.20;0.20;;;;;;;19.97;39.84;101228.34;5134286;27;20075;-31
2022/04/20 09:50:01;;;;;;;0.20;0.20;;;;;;;19.97;39.76;101214.50;5102749;27;20077;-29
2022/04/20 09:52:43;;;;;;;0.20;0.20;;;;;;;19.96;39.52;101206.50;5111903;27;20079;-30
2022/04/20 09:55:12;;;;;;;0.10;0.10;;;;;;;19.97;39.78;101208.16;5123596;27;20496;-29
2022/04/20 09:57:37;;;;;;;0.20;0.20;;;;;;;19.97;39.63;101208.97;5133246;27;20079;-30
2022/04/20 10:00:08;;;;;;;0.10;0.10;;;;;;;19.97;39.58;101211.75;5132848;27;20410;-30
2022/04/20 10:02:48;;;;;;;0.20;0.20;;;;;;;19.98;39.50;101201.50;5114795;27;20043;-31
2022/04/20 10:05:15;;;;;;;0.20;0.20;;;;;;;19.98;39.46;101198.75;5131232;27;20454;-30
2022/04/20 10:07:47;;;;;;;0.20;0.20;;;;;;;19.97;39.74;101200.69;5117845;27;20110;-31
2022/04/20 10:10:13;;;;;;;0.20;0.20;;;;;;;19.98;39.49;101196.00;5132748;27;20434;-31
2022/04/20 10:12:42;;;;;;;0.20;0.20;;;;;;;19.96;39.65;101185.22;5135404;27;20042;-29
2022/04/20 10:17:56;;;;;;;0.20;0.20;;;;;;;19.98;39.63;101176.63;5116865;27;20138;-32
2022/04/20 10:20:27;;;;;;;0.20;0.20;;;;;;;19.97;39.38;101184.09;5135345;27;20481;-30
2022/04/20 10:22:54;;;;;;;0.20;0.20;;;;;;;19.97;39.45;101178.56;5112633;27;20039;-30
2022/04/20 10:25:20;;;;;;;0.20;0.20;;;;;;;19.98;39.66;101171.09;5140942;27;20070;-30
2022/04/20 10:27:56;;;;;;;0.20;0.20;;;;;;;19.98;39.65;101168.34;5130887;27;20078;-29
2022/04/20 10:30:27;;;;;;;0.20;0.20;;;;;;;19.96;39.85;101168.63;5116481;27;20126;-29
2022/04/20 10:33:02;;;;;;;0.20;0.20;;;;;;;19.97;39.58;101170.28;5117319;28;20046;-29
2022/04/20 10:35:28;;;;;;;0.20;0.20;;;;;;;19.98;39.51;101171.09;5112930;27;20442;-30
2022/04/20 10:38:11;;;;;;;0.20;0.20;;;;;;;19.98;39.62;101171.94;5133969;27;20043;-30
2022/04/20 10:41:12;;;;;;;0.20;0.20;;;;;;;19.98;39.46;101169.16;5134120;27;20067;-31
2022/04/20 10:43:39;;;;;;;0.20;0.20;;;;;;;19.97;39.36;101166.69;5097716;28;20089;-30
2022/04/20 10:46:15;;;;;;;0.20;0.20;;;;;;;19.97;39.60;101167.53;5136259;27;20054;-29
2022/04/20 10:48:48;;;;;;;0.10;0.10;;;;;;;19.99;39.66;101158.94;5132208;27;20047;-28
2022/04/20 10:51:17;;;;;;;0.10;0.10;;;;;;;19.98;39.48;101147.06;5112806;27;20092;-30
2022/04/20 10:53:45;;;;;;;0.20;0.20;;;;;;;19.98;39.43;101141.53;5111232;27;20039;-29
2022/04/20 10:56:11;;;;;;;0.10;0.10;;;;;;;19.98;39.36;101143.47;5136236;27;20489;-30
2022/04/20 10:58:50;;;;;;;0.17;0.17;;;;;;;19.99;39.30;101134.06;5128904;27;20043;-31
2022/04/20 11:01:15;;;;;;;0.17;0.17;;;;;;;19.99;39.56;101136.81;5119029;27;20125;-28
2022/04/20 11:04:05;;;;;;;0.20;0.20;;;;;;;19.98;39.59;101132.41;5133262;27;20050;-28
2022/04/20 11:07:12;;;;;;;0.20;0.20;;;;;;;19.99;39.60;101120.22;5119296;27;20064;-30
2022/04/20 11:26:39;;;;;;;0.15;0.15;;;;;;;19.98;39.29;101118.59;5162246;27;20209;-28
2022/04/20 11:29:10;;;;;;;0.10;0.10;;;;;;;19.98;39.23;101116.66;5116168;27;20127;-27
2022/04/20 11:31:40;;;;;;;0.20;0.20;;;;;;;19.98;39.43;101121.34;5117983;27;20139;-27
2022/04/20 11:34:06;;;;;;;0.20;0.20;;;;;;;19.97;39.47;101116.94;5116018;27;20096;-28
2022/04/20 11:36:32;;;;;;;0.10;0.10;;;;;;;19.97;39.48;101109.47;5114450;27;20541;-29
2022/04/20 11:39:00;;;;;;;0.10;0.10;;;;;;;19.97;39.33;101105.88;5095400;28;20439;-28
2022/04/20 11:41:27;;;;;;;0.10;0.10;;;;;;;19.99;39.67;101103.66;5098524;28;20122;-28
2022/04/20 11:43:52;;;;;;;0.20;0.20;;;;;;;19.99;39.24;101110.03;5098152;28;20145;-28
2022/04/20 11:46:20;;;;;;;0.20;0.20;;;;;;;19.98;39.35;101102.00;5120604;27;20043;-27
2022/04/20 11:49:00;;;;;;;0.20;0.20;;;;;;;19.99;39.44;101089.81;5118527;27;20074;-28
2022/04/20 11:51:28;;;;;;;0.20;0.20;;;;;;;19.98;39.51;101099.22;5116699;27;20735;-27
2022/04/20 11:53:55;;;;;;;0.17;0.17;;;;;;;19.99;39.55;101103.66;5121953;27;20083;-27
2022/04/20 11:56:37;;;;;;;0.20;0.20;;;;;;;19.99;39.42;101084.28;5117095;27;20098;-28
2022/04/20 11:59:06;;;;;;;0.20;0.20;;;;;;;19.98;39.51;101094.53;5082326;28;20072;-27
2022/04/20 12:01:33;;;;;;;0.10;0.10;;;;;;;19.98;39.60;101086.25;5098563;28;20477;-28
2022/04/20 12:04:04;;;;;;;0.20;0.20;;;;;;;19.98;39.59;101089.00;5101792;28;20035;-28